sensor_id;sensor_type;location;lat;lon;timestamp;P1;durP1;ratioP1;P2;durP2;ratioP2
75400;SDS011;63974;47.538;18.972;2023-08-17T00:01:48;4.95;;;3.60;;
75400;SDS011;63974;47.538;18.972;2023-08-17T00:04:51;4.40;;;4.00;;
75400;SDS011;63974;47.538;18.972;2023-08-17T00:07:54;4.60;;;3.70;;
75400;SDS011;63974;47.538;18.972;2023-08-17T00:10:57;4.88;;;4.05;;
75400;SDS011;63974;47.538;18.972;2023-08-17T00:14:00;5.00;;;4.13;;
75400;SDS011;63974;47.538;18.972;2023-08-17T00:17:03;4.57;;;3.70;;
75400;SDS011;63974;47.538;18.972;2023-08-17T00:20:06;3.67;;;3.27;;
75400;SDS011;63974;47.538;18.972;2023-08-17T00:23:09;5.25;;;3.97;;
75400;SDS011;63974;47.538;18.972;2023-08-17T00:26:12;6.07;;;3.97;;
75400;SDS011;63974;47.538;18.972;2023-08-17T00:29:16;5.53;;;3.75;;
75400;SDS011;63974;47.538;18.972;2023-08-17T00:32:19;5.60;;;4.30;;
75400;SDS011;63974;47.538;18.972;2023-08-17T00:35:22;6.77;;;4.40;;
75400;SDS011;63974;47.538;18.972;2023-08-17T00:38:25;5.95;;;4.18;;
75400;SDS011;63974;47.538;18.972;2023-08-17T00:41:27;6.70;;;4.25;;
75400;SDS011;63974;47.538;18.972;2023-08-17T00:44:31;6.05;;;4.70;;
75400;SDS011;63974;47.538;18.972;2023-08-17T00:47:33;5.70;;;4.85;;
75400;SDS011;63974;47.538;18.972;2023-08-17T00:50:37;8.07;;;4.97;;
75400;SDS011;63974;47.538;18.972;2023-08-17T00:53:41;6.22;;;4.68;;
75400;SDS011;63974;47.538;18.972;2023-08-17T00:56:44;6.70;;;5.25;;
75400;SDS011;63974;47.538;18.972;2023-08-17T00:59:47;6.60;;;4.97;;
75400;SDS011;63974;47.538;18.972;2023-08-17T01:03:05;8.95;;;6.22;;
75400;SDS011;63974;47.538;18.972;2023-08-17T01:06:08;7.93;;;6.13;;
75400;SDS011;63974;47.538;18.972;2023-08-17T01:09:11;8.20;;;5.85;;
75400;SDS011;63974;47.538;18.972;2023-08-17T01:12:17;9.07;;;6.20;;
75400;SDS011;63974;47.538;18.972;2023-08-17T01:15:28;8.75;;;6.35;;
75400;SDS011;63974;47.538;18.972;2023-08-17T01:18:37;7.55;;;5.82;;
75400;SDS011;63974;47.538;18.972;2023-08-17T01:21:51;8.67;;;6.50;;
75400;SDS011;63974;47.538;18.972;2023-08-17T01:24:59;7.00;;;5.90;;
75400;SDS011;63974;47.538;18.972;2023-08-17T01:28:03;8.73;;;6.43;;
75400;SDS011;63974;47.538;18.972;2023-08-17T01:34:36;9.65;;;6.53;;
75400;SDS011;63974;47.538;18.972;2023-08-17T01:37:47;7.80;;;6.47;;
75400;SDS011;63974;47.538;18.972;2023-08-17T01:40:53;11.15;;;7.47;;
75400;SDS011;63974;47.538;18.972;2023-08-17T01:43:56;9.23;;;7.13;;
75400;SDS011;63974;47.538;18.972;2023-08-17T01:47:02;10.30;;;7.82;;
75400;SDS011;63974;47.538;18.972;2023-08-17T01:50:05;10.05;;;7.57;;
75400;SDS011;63974;47.538;18.972;2023-08-17T01:53:08;10.43;;;6.83;;
75400;SDS011;63974;47.538;18.972;2023-08-17T01:56:12;13.00;;;8.30;;
75400;SDS011;63974;47.538;18.972;2023-08-17T01:59:15;13.40;;;8.48;;
75400;SDS011;63974;47.538;18.972;2023-08-17T02:02:18;13.23;;;8.10;;
75400;SDS011;63974;47.538;18.972;2023-08-17T02:05:21;12.50;;;8.45;;
75400;SDS011;63974;47.538;18.972;2023-08-17T02:08:24;11.03;;;7.83;;
75400;SDS011;63974;47.538;18.972;2023-08-17T02:11:28;12.13;;;8.65;;
75400;SDS011;63974;47.538;18.972;2023-08-17T02:14:31;11.52;;;7.90;;
75400;SDS011;63974;47.538;18.972;2023-08-17T02:17:33;14.70;;;8.27;;
75400;SDS011;63974;47.538;18.972;2023-08-17T02:20:37;13.88;;;8.43;;
75400;SDS011;63974;47.538;18.972;2023-08-17T02:23:40;12.93;;;8.23;;
75400;SDS011;63974;47.538;18.972;2023-08-17T02:26:42;13.55;;;8.25;;
75400;SDS011;63974;47.538;18.972;2023-08-17T02:29:45;11.38;;;8.20;;
75400;SDS011;63974;47.538;18.972;2023-08-17T02:32:48;13.45;;;8.45;;
75400;SDS011;63974;47.538;18.972;2023-08-17T02:35:52;11.50;;;7.60;;
75400;SDS011;63974;47.538;18.972;2023-08-17T02:38:55;11.13;;;8.30;;
75400;SDS011;63974;47.538;18.972;2023-08-17T02:41:57;13.32;;;8.75;;
75400;SDS011;63974;47.538;18.972;2023-08-17T02:45:00;13.23;;;9.20;;
75400;SDS011;63974;47.538;18.972;2023-08-17T02:48:04;13.27;;;9.68;;
75400;SDS011;63974;47.538;18.972;2023-08-17T02:51:07;14.10;;;9.23;;
75400;SDS011;63974;47.538;18.972;2023-08-17T02:54:10;12.50;;;8.70;;
75400;SDS011;63974;47.538;18.972;2023-08-17T02:57:13;13.35;;;9.40;;
75400;SDS011;63974;47.538;18.972;2023-08-17T03:00:15;13.65;;;9.48;;
75400;SDS011;63974;47.538;18.972;2023-08-17T03:03:20;14.73;;;9.68;;
75400;SDS011;63974;47.538;18.972;2023-08-17T03:06:24;12.45;;;9.15;;
75400;SDS011;63974;47.538;18.972;2023-08-17T03:09:27;14.07;;;8.40;;
75400;SDS011;63974;47.538;18.972;2023-08-17T03:12:30;13.90;;;10.02;;
75400;SDS011;63974;47.538;18.972;2023-08-17T03:15:33;15.27;;;9.23;;
75400;SDS011;63974;47.538;18.972;2023-08-17T03:18:36;16.27;;;9.75;;
75400;SDS011;63974;47.538;18.972;2023-08-17T03:21:39;14.23;;;9.30;;
75400;SDS011;63974;47.538;18.972;2023-08-17T03:24:42;15.73;;;9.87;;
75400;SDS011;63974;47.538;18.972;2023-08-17T03:27:45;16.08;;;9.73;;
75400;SDS011;63974;47.538;18.972;2023-08-17T03:30:49;15.98;;;10.00;;
75400;SDS011;63974;47.538;18.972;2023-08-17T03:33:52;15.63;;;10.50;;
75400;SDS011;63974;47.538;18.972;2023-08-17T03:36:54;15.82;;;10.30;;
75400;SDS011;63974;47.538;18.972;2023-08-17T03:39:58;15.43;;;10.40;;
75400;SDS011;63974;47.538;18.972;2023-08-17T03:43:04;15.68;;;10.25;;
75400;SDS011;63974;47.538;18.972;2023-08-17T03:46:07;17.95;;;10.27;;
75400;SDS011;63974;47.538;18.972;2023-08-17T03:49:10;15.52;;;10.27;;
75400;SDS011;63974;47.538;18.972;2023-08-17T03:52:13;16.33;;;10.88;;
75400;SDS011;63974;47.538;18.972;2023-08-17T03:55:16;13.67;;;9.60;;
75400;SDS011;63974;47.538;18.972;2023-08-17T03:58:19;18.35;;;11.02;;
75400;SDS011;63974;47.538;18.972;2023-08-17T04:01:22;15.30;;;10.48;;
75400;SDS011;63974;47.538;18.972;2023-08-17T04:04:25;13.93;;;10.27;;
75400;SDS011;63974;47.538;18.972;2023-08-17T04:07:28;14.32;;;10.57;;
75400;SDS011;63974;47.538;18.972;2023-08-17T04:10:31;15.90;;;11.27;;
75400;SDS011;63974;47.538;18.972;2023-08-17T04:13:34;14.70;;;9.60;;
75400;SDS011;63974;47.538;18.972;2023-08-17T04:16:37;14.18;;;10.27;;
75400;SDS011;63974;47.538;18.972;2023-08-17T04:19:39;16.60;;;10.23;;
75400;SDS011;63974;47.538;18.972;2023-08-17T04:22:44;14.90;;;10.27;;
75400;SDS011;63974;47.538;18.972;2023-08-17T04:25:47;14.77;;;10.40;;
75400;SDS011;63974;47.538;18.972;2023-08-17T04:28:50;12.27;;;10.07;;
75400;SDS011;63974;47.538;18.972;2023-08-17T04:31:53;15.05;;;9.40;;
75400;SDS011;63974;47.538;18.972;2023-08-17T04:34:56;18.00;;;11.00;;
75400;SDS011;63974;47.538;18.972;2023-08-17T04:37:59;14.35;;;11.00;;
75400;SDS011;63974;47.538;18.972;2023-08-17T04:41:02;16.23;;;10.73;;
75400;SDS011;63974;47.538;18.972;2023-08-17T04:44:06;14.30;;;10.18;;
75400;SDS011;63974;47.538;18.972;2023-08-17T04:47:11;16.17;;;11.10;;
75400;SDS011;63974;47.538;18.972;2023-08-17T04:50:14;13.13;;;9.32;;
75400;SDS011;63974;47.538;18.972;2023-08-17T04:53:19;13.32;;;8.98;;
75400;SDS011;63974;47.538;18.972;2023-08-17T04:56:21;12.13;;;8.50;;
75400;SDS011;63974;47.538;18.972;2023-08-17T04:59:24;14.18;;;10.27;;
75400;SDS011;63974;47.538;18.972;2023-08-17T05:02:27;13.30;;;9.43;;
75400;SDS011;63974;47.538;18.972;2023-08-17T05:05:30;14.13;;;10.05;;
75400;SDS011;63974;47.538;18.972;2023-08-17T05:08:34;15.95;;;10.18;;
75400;SDS011;63974;47.538;18.972;2023-08-17T05:11:37;14.17;;;9.63;;
75400;SDS011;63974;47.538;18.972;2023-08-17T05:14:40;13.73;;;9.35;;
75400;SDS011;63974;47.538;18.972;2023-08-17T05:17:42;13.85;;;9.70;;
75400;SDS011;63974;47.538;18.972;2023-08-17T05:20:46;14.18;;;10.18;;
75400;SDS011;63974;47.538;18.972;2023-08-17T05:23:49;11.85;;;9.55;;
75400;SDS011;63974;47.538;18.972;2023-08-17T05:26:53;13.73;;;9.53;;
75400;SDS011;63974;47.538;18.972;2023-08-17T05:29:56;12.02;;;8.80;;
75400;SDS011;63974;47.538;18.972;2023-08-17T05:32:59;15.18;;;9.18;;
75400;SDS011;63974;47.538;18.972;2023-08-17T05:36:02;12.73;;;9.35;;
75400;SDS011;63974;47.538;18.972;2023-08-17T05:39:06;10.10;;;8.77;;
75400;SDS011;63974;47.538;18.972;2023-08-17T05:42:09;11.37;;;8.43;;
75400;SDS011;63974;47.538;18.972;2023-08-17T05:45:12;10.20;;;7.68;;
75400;SDS011;63974;47.538;18.972;2023-08-17T05:48:15;10.23;;;7.22;;
75400;SDS011;63974;47.538;18.972;2023-08-17T05:51:18;11.32;;;7.45;;
75400;SDS011;63974;47.538;18.972;2023-08-17T05:54:21;11.43;;;8.07;;
75400;SDS011;63974;47.538;18.972;2023-08-17T05:57:23;11.03;;;6.80;;
75400;SDS011;63974;47.538;18.972;2023-08-17T06:00:26;9.70;;;7.57;;
75400;SDS011;63974;47.538;18.972;2023-08-17T06:03:29;9.93;;;6.97;;
75400;SDS011;63974;47.538;18.972;2023-08-17T06:06:32;9.77;;;7.28;;
75400;SDS011;63974;47.538;18.972;2023-08-17T06:09:35;11.70;;;7.03;;
75400;SDS011;63974;47.538;18.972;2023-08-17T06:12:38;9.03;;;6.50;;
75400;SDS011;63974;47.538;18.972;2023-08-17T06:15:40;9.57;;;7.50;;
75400;SDS011;63974;47.538;18.972;2023-08-17T06:18:43;8.35;;;6.78;;
75400;SDS011;63974;47.538;18.972;2023-08-17T06:21:46;7.55;;;6.75;;
75400;SDS011;63974;47.538;18.972;2023-08-17T06:24:49;9.70;;;7.15;;
75400;SDS011;63974;47.538;18.972;2023-08-17T06:27:51;9.17;;;6.73;;
75400;SDS011;63974;47.538;18.972;2023-08-17T06:30:55;9.88;;;7.15;;
75400;SDS011;63974;47.538;18.972;2023-08-17T06:33:58;10.95;;;7.03;;
75400;SDS011;63974;47.538;18.972;2023-08-17T06:37:02;10.57;;;7.05;;
75400;SDS011;63974;47.538;18.972;2023-08-17T06:40:06;9.95;;;6.93;;
75400;SDS011;63974;47.538;18.972;2023-08-17T06:43:10;7.73;;;6.47;;
75400;SDS011;63974;47.538;18.972;2023-08-17T06:46:12;8.98;;;6.78;;
75400;SDS011;63974;47.538;18.972;2023-08-17T06:49:15;8.55;;;6.90;;
75400;SDS011;63974;47.538;18.972;2023-08-17T06:52:18;7.00;;;6.32;;
75400;SDS011;63974;47.538;18.972;2023-08-17T06:55:21;8.82;;;6.22;;
75400;SDS011;63974;47.538;18.972;2023-08-17T06:58:24;8.27;;;7.30;;
75400;SDS011;63974;47.538;18.972;2023-08-17T07:01:26;9.07;;;7.05;;
75400;SDS011;63974;47.538;18.972;2023-08-17T07:04:29;7.95;;;6.63;;
75400;SDS011;63974;47.538;18.972;2023-08-17T07:07:32;8.52;;;6.28;;
75400;SDS011;63974;47.538;18.972;2023-08-17T07:10:35;7.63;;;6.60;;
75400;SDS011;63974;47.538;18.972;2023-08-17T07:13:38;8.87;;;6.80;;
75400;SDS011;63974;47.538;18.972;2023-08-17T07:16:41;8.27;;;7.47;;
75400;SDS011;63974;47.538;18.972;2023-08-17T07:19:44;7.70;;;6.90;;
75400;SDS011;63974;47.538;18.972;2023-08-17T07:23:07;8.65;;;6.90;;
75400;SDS011;63974;47.538;18.972;2023-08-17T07:26:10;8.65;;;7.32;;
75400;SDS011;63974;47.538;18.972;2023-08-17T07:29:14;8.53;;;7.07;;
75400;SDS011;63974;47.538;18.972;2023-08-17T07:32:17;7.50;;;6.70;;
75400;SDS011;63974;47.538;18.972;2023-08-17T07:35:20;8.70;;;6.97;;
75400;SDS011;63974;47.538;18.972;2023-08-17T07:38:23;8.77;;;7.70;;
75400;SDS011;63974;47.538;18.972;2023-08-17T07:41:26;9.00;;;7.20;;
75400;SDS011;63974;47.538;18.972;2023-08-17T07:44:29;9.03;;;7.40;;
75400;SDS011;63974;47.538;18.972;2023-08-17T07:47:34;8.63;;;7.25;;
75400;SDS011;63974;47.538;18.972;2023-08-17T07:50:40;8.43;;;7.55;;
75400;SDS011;63974;47.538;18.972;2023-08-17T07:53:43;9.90;;;8.23;;
75400;SDS011;63974;47.538;18.972;2023-08-17T07:56:46;9.48;;;7.88;;
75400;SDS011;63974;47.538;18.972;2023-08-17T07:59:49;10.70;;;7.40;;
75400;SDS011;63974;47.538;18.972;2023-08-17T08:02:53;9.13;;;7.63;;
75400;SDS011;63974;47.538;18.972;2023-08-17T08:05:55;9.50;;;8.32;;
75400;SDS011;63974;47.538;18.972;2023-08-17T08:08:58;10.10;;;7.00;;
75400;SDS011;63974;47.538;18.972;2023-08-17T08:12:01;10.23;;;7.53;;
75400;SDS011;63974;47.538;18.972;2023-08-17T08:15:04;9.77;;;7.87;;
75400;SDS011;63974;47.538;18.972;2023-08-17T08:18:08;9.82;;;8.82;;
75400;SDS011;63974;47.538;18.972;2023-08-17T08:21:11;12.63;;;8.43;;
75400;SDS011;63974;47.538;18.972;2023-08-17T08:24:14;9.07;;;8.18;;
75400;SDS011;63974;47.538;18.972;2023-08-17T08:27:32;9.75;;;8.63;;
75400;SDS011;63974;47.538;18.972;2023-08-17T08:30:34;8.27;;;7.47;;
75400;SDS011;63974;47.538;18.972;2023-08-17T08:33:37;9.55;;;7.97;;
75400;SDS011;63974;47.538;18.972;2023-08-17T08:36:40;8.98;;;8.07;;
75400;SDS011;63974;47.538;18.972;2023-08-17T08:39:52;9.55;;;7.43;;
75400;SDS011;63974;47.538;18.972;2023-08-17T08:42:57;8.70;;;7.90;;
75400;SDS011;63974;47.538;18.972;2023-08-17T08:46:00;9.03;;;8.13;;
75400;SDS011;63974;47.538;18.972;2023-08-17T08:49:03;8.18;;;7.38;;
75400;SDS011;63974;47.538;18.972;2023-08-17T08:52:09;9.38;;;8.35;;
75400;SDS011;63974;47.538;18.972;2023-08-17T08:55:18;9.88;;;8.15;;
75400;SDS011;63974;47.538;18.972;2023-08-17T08:58:24;10.57;;;8.32;;
75400;SDS011;63974;47.538;18.972;2023-08-17T09:01:28;8.63;;;7.83;;
75400;SDS011;63974;47.538;18.972;2023-08-17T09:04:36;8.85;;;7.95;;
75400;SDS011;63974;47.538;18.972;2023-08-17T09:07:38;8.45;;;7.65;;
75400;SDS011;63974;47.538;18.972;2023-08-17T09:10:42;9.70;;;8.13;;
75400;SDS011;63974;47.538;18.972;2023-08-17T09:13:45;9.05;;;8.05;;
75400;SDS011;63974;47.538;18.972;2023-08-17T09:16:47;11.53;;;8.37;;
75400;SDS011;63974;47.538;18.972;2023-08-17T09:19:50;8.95;;;7.90;;
75400;SDS011;63974;47.538;18.972;2023-08-17T09:22:53;8.98;;;7.53;;
75400;SDS011;63974;47.538;18.972;2023-08-17T09:25:57;8.43;;;7.63;;
75400;SDS011;63974;47.538;18.972;2023-08-17T09:29:17;9.43;;;8.30;;
75400;SDS011;63974;47.538;18.972;2023-08-17T09:32:20;8.27;;;7.43;;
75400;SDS011;63974;47.538;18.972;2023-08-17T09:35:23;8.68;;;7.88;;
75400;SDS011;63974;47.538;18.972;2023-08-17T09:38:29;8.30;;;7.50;;
75400;SDS011;63974;47.538;18.972;2023-08-17T09:41:37;8.48;;;7.68;;
75400;SDS011;63974;47.538;18.972;2023-08-17T09:44:44;8.38;;;7.68;;
75400;SDS011;63974;47.538;18.972;2023-08-17T09:47:48;7.83;;;7.13;;
75400;SDS011;63974;47.538;18.972;2023-08-17T09:50:51;9.63;;;6.75;;
75400;SDS011;63974;47.538;18.972;2023-08-17T09:53:54;9.23;;;8.10;;
75400;SDS011;63974;47.538;18.972;2023-08-17T09:57:01;7.88;;;6.90;;
75400;SDS011;63974;47.538;18.972;2023-08-17T10:00:05;9.45;;;7.80;;
75400;SDS011;63974;47.538;18.972;2023-08-17T10:03:09;8.23;;;7.43;;
75400;SDS011;63974;47.538;18.972;2023-08-17T10:06:13;7.70;;;6.93;;
75400;SDS011;63974;47.538;18.972;2023-08-17T10:09:32;8.25;;;7.55;;
75400;SDS011;63974;47.538;18.972;2023-08-17T10:12:55;7.65;;;6.95;;
75400;SDS011;63974;47.538;18.972;2023-08-17T10:16:10;8.23;;;6.57;;
75400;SDS011;63974;47.538;18.972;2023-08-17T10:19:25;7.57;;;6.87;;
75400;SDS011;63974;47.538;18.972;2023-08-17T10:22:41;8.25;;;7.55;;
75400;SDS011;63974;47.538;18.972;2023-08-17T10:25:57;8.50;;;7.72;;
75400;SDS011;63974;47.538;18.972;2023-08-17T10:29:02;7.95;;;7.15;;
75400;SDS011;63974;47.538;18.972;2023-08-17T10:32:15;8.52;;;7.78;;
75400;SDS011;63974;47.538;18.972;2023-08-17T10:35:18;8.40;;;7.60;;
75400;SDS011;63974;47.538;18.972;2023-08-17T10:38:21;8.43;;;7.53;;
75400;SDS011;63974;47.538;18.972;2023-08-17T10:41:27;8.15;;;7.45;;
75400;SDS011;63974;47.538;18.972;2023-08-17T10:47:52;7.70;;;7.00;;
75400;SDS011;63974;47.538;18.972;2023-08-17T10:51:08;7.83;;;6.80;;
75400;SDS011;63974;47.538;18.972;2023-08-17T10:54:15;8.20;;;7.50;;
75400;SDS011;63974;47.538;18.972;2023-08-17T10:57:24;7.75;;;6.57;;
75400;SDS011;63974;47.538;18.972;2023-08-17T11:00:54;7.30;;;6.60;;
75400;SDS011;63974;47.538;18.972;2023-08-17T11:04:13;8.35;;;7.47;;
75400;SDS011;63974;47.538;18.972;2023-08-17T11:07:19;8.10;;;6.90;;
75400;SDS011;63974;47.538;18.972;2023-08-17T11:13:27;7.60;;;6.78;;
75400;SDS011;63974;47.538;18.972;2023-08-17T11:16:31;7.97;;;7.22;;
75400;SDS011;63974;47.538;18.972;2023-08-17T11:19:34;7.30;;;6.68;;
75400;SDS011;63974;47.538;18.972;2023-08-17T11:22:41;7.93;;;7.13;;
75400;SDS011;63974;47.538;18.972;2023-08-17T11:25:44;7.65;;;6.93;;
75400;SDS011;63974;47.538;18.972;2023-08-17T11:28:47;7.93;;;7.22;;
75400;SDS011;63974;47.538;18.972;2023-08-17T11:31:50;8.48;;;7.05;;
75400;SDS011;63974;47.538;18.972;2023-08-17T11:34:53;7.65;;;6.68;;
75400;SDS011;63974;47.538;18.972;2023-08-17T11:38:01;7.37;;;6.47;;
75400;SDS011;63974;47.538;18.972;2023-08-17T11:41:10;7.75;;;7.05;;
75400;SDS011;63974;47.538;18.972;2023-08-17T11:44:19;7.95;;;7.20;;
75400;SDS011;63974;47.538;18.972;2023-08-17T11:47:25;8.73;;;6.85;;
75400;SDS011;63974;47.538;18.972;2023-08-17T11:50:33;7.25;;;6.65;;
75400;SDS011;63974;47.538;18.972;2023-08-17T11:53:41;7.50;;;6.77;;
75400;SDS011;63974;47.538;18.972;2023-08-17T11:56:49;8.75;;;7.15;;
75400;SDS011;63974;47.538;18.972;2023-08-17T11:59:53;7.45;;;6.75;;
75400;SDS011;63974;47.538;18.972;2023-08-17T12:02:57;7.07;;;6.40;;
75400;SDS011;63974;47.538;18.972;2023-08-17T12:06:00;7.72;;;7.00;;
75400;SDS011;63974;47.538;18.972;2023-08-17T12:09:04;8.53;;;6.80;;
75400;SDS011;63974;47.538;18.972;2023-08-17T12:12:07;7.47;;;6.72;;
75400;SDS011;63974;47.538;18.972;2023-08-17T12:15:12;7.22;;;6.22;;
75400;SDS011;63974;47.538;18.972;2023-08-17T12:18:15;7.63;;;6.78;;
75400;SDS011;63974;47.538;18.972;2023-08-17T12:21:24;7.70;;;6.90;;
75400;SDS011;63974;47.538;18.972;2023-08-17T12:24:28;7.27;;;6.57;;
75400;SDS011;63974;47.538;18.972;2023-08-17T12:27:32;7.20;;;6.53;;
75400;SDS011;63974;47.538;18.972;2023-08-17T12:30:35;9.38;;;6.85;;
75400;SDS011;63974;47.538;18.972;2023-08-17T12:33:39;7.75;;;6.95;;
75400;SDS011;63974;47.538;18.972;2023-08-17T12:36:43;8.20;;;6.97;;
75400;SDS011;63974;47.538;18.972;2023-08-17T12:39:46;6.73;;;6.13;;
75400;SDS011;63974;47.538;18.972;2023-08-17T12:42:50;6.97;;;6.38;;
75400;SDS011;63974;47.538;18.972;2023-08-17T12:45:52;8.65;;;6.82;;
75400;SDS011;63974;47.538;18.972;2023-08-17T12:48:55;6.43;;;5.82;;
75400;SDS011;63974;47.538;18.972;2023-08-17T12:51:58;7.35;;;6.63;;
75400;SDS011;63974;47.538;18.972;2023-08-17T12:55:01;6.93;;;6.30;;
75400;SDS011;63974;47.538;18.972;2023-08-17T12:58:04;7.88;;;7.15;;
75400;SDS011;63974;47.538;18.972;2023-08-17T13:01:08;7.65;;;7.05;;
75400;SDS011;63974;47.538;18.972;2023-08-17T13:04:10;7.47;;;6.78;;
75400;SDS011;63974;47.538;18.972;2023-08-17T13:07:13;7.32;;;6.63;;
75400;SDS011;63974;47.538;18.972;2023-08-17T13:10:16;7.57;;;6.50;;
75400;SDS011;63974;47.538;18.972;2023-08-17T13:13:20;7.68;;;6.95;;
75400;SDS011;63974;47.538;18.972;2023-08-17T13:16:22;7.97;;;7.22;;
75400;SDS011;63974;47.538;18.972;2023-08-17T13:19:25;7.30;;;6.70;;
75400;SDS011;63974;47.538;18.972;2023-08-17T13:22:28;7.70;;;6.90;;
75400;SDS011;63974;47.538;18.972;2023-08-17T13:25:31;8.10;;;6.57;;
75400;SDS011;63974;47.538;18.972;2023-08-17T13:28:34;7.40;;;6.55;;
75400;SDS011;63974;47.538;18.972;2023-08-17T13:31:37;7.88;;;7.28;;
75400;SDS011;63974;47.538;18.972;2023-08-17T13:34:40;9.20;;;8.40;;
75400;SDS011;63974;47.538;18.972;2023-08-17T13:37:42;8.07;;;7.38;;
75400;SDS011;63974;47.538;18.972;2023-08-17T13:40:45;8.33;;;6.60;;
75400;SDS011;63974;47.538;18.972;2023-08-17T13:43:48;7.22;;;6.57;;
75400;SDS011;63974;47.538;18.972;2023-08-17T13:46:51;7.57;;;6.97;;
75400;SDS011;63974;47.538;18.972;2023-08-17T13:49:53;6.43;;;5.82;;
75400;SDS011;63974;47.538;18.972;2023-08-17T13:52:58;7.78;;;7.07;;
75400;SDS011;63974;47.538;18.972;2023-08-17T13:56:02;7.07;;;6.37;;
75400;SDS011;63974;47.538;18.972;2023-08-17T13:59:05;6.90;;;6.30;;
75400;SDS011;63974;47.538;18.972;2023-08-17T14:02:08;7.72;;;6.75;;
75400;SDS011;63974;47.538;18.972;2023-08-17T14:05:11;7.03;;;6.43;;
75400;SDS011;63974;47.538;18.972;2023-08-17T14:08:13;7.05;;;6.55;;
75400;SDS011;63974;47.538;18.972;2023-08-17T14:11:16;7.10;;;6.50;;
75400;SDS011;63974;47.538;18.972;2023-08-17T14:14:19;6.68;;;6.15;;
75400;SDS011;63974;47.538;18.972;2023-08-17T14:17:22;7.13;;;6.53;;
75400;SDS011;63974;47.538;18.972;2023-08-17T14:20:25;6.53;;;6.03;;
75400;SDS011;63974;47.538;18.972;2023-08-17T14:23:29;9.07;;;7.10;;
75400;SDS011;63974;47.538;18.972;2023-08-17T14:26:32;5.93;;;5.43;;
75400;SDS011;63974;47.538;18.972;2023-08-17T14:29:34;6.72;;;6.05;;
75400;SDS011;63974;47.538;18.972;2023-08-17T14:32:37;6.22;;;5.63;;
75400;SDS011;63974;47.538;18.972;2023-08-17T14:35:40;7.13;;;6.53;;
75400;SDS011;63974;47.538;18.972;2023-08-17T14:38:43;7.40;;;6.47;;
75400;SDS011;63974;47.538;18.972;2023-08-17T14:41:46;7.23;;;6.63;;
75400;SDS011;63974;47.538;18.972;2023-08-17T14:44:49;7.78;;;6.55;;
75400;SDS011;63974;47.538;18.972;2023-08-17T14:47:52;6.47;;;5.88;;
75400;SDS011;63974;47.538;18.972;2023-08-17T14:50:54;7.07;;;6.40;;
75400;SDS011;63974;47.538;18.972;2023-08-17T14:53:58;6.80;;;6.05;;
75400;SDS011;63974;47.538;18.972;2023-08-17T14:57:01;6.70;;;6.10;;
75400;SDS011;63974;47.538;18.972;2023-08-17T15:00:04;7.40;;;6.38;;
75400;SDS011;63974;47.538;18.972;2023-08-17T15:03:07;7.10;;;6.50;;
75400;SDS011;63974;47.538;18.972;2023-08-17T15:06:10;7.43;;;6.80;;
75400;SDS011;63974;47.538;18.972;2023-08-17T15:09:33;7.40;;;6.88;;
75400;SDS011;63974;47.538;18.972;2023-08-17T15:12:35;7.00;;;6.30;;
75400;SDS011;63974;47.538;18.972;2023-08-17T15:15:38;6.28;;;5.57;;
75400;SDS011;63974;47.538;18.972;2023-08-17T15:18:41;7.43;;;6.72;;
75400;SDS011;63974;47.538;18.972;2023-08-17T15:21:44;6.53;;;6.03;;
75400;SDS011;63974;47.538;18.972;2023-08-17T15:24:47;7.35;;;6.60;;
75400;SDS011;63974;47.538;18.972;2023-08-17T15:27:51;6.70;;;6.17;;
75400;SDS011;63974;47.538;18.972;2023-08-17T15:31:01;6.80;;;6.18;;
75400;SDS011;63974;47.538;18.972;2023-08-17T15:34:07;7.95;;;6.47;;
75400;SDS011;63974;47.538;18.972;2023-08-17T15:37:10;5.75;;;5.35;;
75400;SDS011;63974;47.538;18.972;2023-08-17T15:40:13;6.32;;;5.82;;
75400;SDS011;63974;47.538;18.972;2023-08-17T15:43:16;6.17;;;5.57;;
75400;SDS011;63974;47.538;18.972;2023-08-17T15:46:19;6.88;;;6.22;;
75400;SDS011;63974;47.538;18.972;2023-08-17T15:49:22;6.68;;;6.05;;
75400;SDS011;63974;47.538;18.972;2023-08-17T15:52:24;7.63;;;5.85;;
75400;SDS011;63974;47.538;18.972;2023-08-17T15:55:27;6.53;;;5.82;;
75400;SDS011;63974;47.538;18.972;2023-08-17T15:58:30;6.80;;;6.07;;
75400;SDS011;63974;47.538;18.972;2023-08-17T16:01:33;7.13;;;6.28;;
75400;SDS011;63974;47.538;18.972;2023-08-17T16:04:36;6.47;;;5.97;;
75400;SDS011;63974;47.538;18.972;2023-08-17T16:07:38;6.80;;;6.20;;
75400;SDS011;63974;47.538;18.972;2023-08-17T16:10:41;6.90;;;6.30;;
75400;SDS011;63974;47.538;18.972;2023-08-17T16:13:44;6.47;;;5.77;;
75400;SDS011;63974;47.538;18.972;2023-08-17T16:16:48;7.47;;;6.50;;
75400;SDS011;63974;47.538;18.972;2023-08-17T16:19:51;7.38;;;6.65;;
75400;SDS011;63974;47.538;18.972;2023-08-17T16:22:53;7.45;;;6.25;;
75400;SDS011;63974;47.538;18.972;2023-08-17T16:25:56;7.30;;;6.60;;
75400;SDS011;63974;47.538;18.972;2023-08-17T16:28:59;8.23;;;6.10;;
75400;SDS011;63974;47.538;18.972;2023-08-17T16:32:02;7.18;;;6.53;;
75400;SDS011;63974;47.538;18.972;2023-08-17T16:35:08;8.57;;;7.72;;
75400;SDS011;63974;47.538;18.972;2023-08-17T16:38:11;8.10;;;7.40;;
75400;SDS011;63974;47.538;18.972;2023-08-17T16:41:14;8.48;;;7.78;;
75400;SDS011;63974;47.538;18.972;2023-08-17T16:44:18;7.27;;;6.53;;
75400;SDS011;63974;47.538;18.972;2023-08-17T16:47:22;8.10;;;7.35;;
75400;SDS011;63974;47.538;18.972;2023-08-17T16:50:29;7.53;;;6.82;;
75400;SDS011;63974;47.538;18.972;2023-08-17T16:53:35;8.07;;;7.03;;
75400;SDS011;63974;47.538;18.972;2023-08-17T16:56:45;8.02;;;7.32;;
75400;SDS011;63974;47.538;18.972;2023-08-17T16:59:48;7.60;;;6.77;;
75400;SDS011;63974;47.538;18.972;2023-08-17T17:02:51;7.78;;;6.50;;
75400;SDS011;63974;47.538;18.972;2023-08-17T17:05:54;7.65;;;6.60;;
75400;SDS011;63974;47.538;18.972;2023-08-17T17:08:56;7.68;;;6.88;;
75400;SDS011;63974;47.538;18.972;2023-08-17T17:11:59;9.07;;;7.10;;
75400;SDS011;63974;47.538;18.972;2023-08-17T17:15:02;9.77;;;6.73;;
75400;SDS011;63974;47.538;18.972;2023-08-17T17:18:06;9.02;;;7.28;;
75400;SDS011;63974;47.538;18.972;2023-08-17T17:21:10;8.07;;;7.28;;
75400;SDS011;63974;47.538;18.972;2023-08-17T17:24:13;8.43;;;6.68;;
75400;SDS011;63974;47.538;18.972;2023-08-17T17:27:24;9.07;;;8.13;;
75400;SDS011;63974;47.538;18.972;2023-08-17T17:30:28;9.67;;;8.00;;
75400;SDS011;63974;47.538;18.972;2023-08-17T17:33:31;8.13;;;7.20;;
75400;SDS011;63974;47.538;18.972;2023-08-17T17:36:34;12.13;;;8.10;;
75400;SDS011;63974;47.538;18.972;2023-08-17T17:39:36;9.10;;;8.20;;
75400;SDS011;63974;47.538;18.972;2023-08-17T17:42:39;8.73;;;7.85;;
75400;SDS011;63974;47.538;18.972;2023-08-17T17:45:42;9.23;;;7.70;;
75400;SDS011;63974;47.538;18.972;2023-08-17T17:48:45;9.02;;;7.80;;
75400;SDS011;63974;47.538;18.972;2023-08-17T17:51:48;9.48;;;8.40;;
75400;SDS011;63974;47.538;18.972;2023-08-17T17:54:51;10.57;;;7.43;;
75400;SDS011;63974;47.538;18.972;2023-08-17T17:57:54;9.65;;;8.20;;
75400;SDS011;63974;47.538;18.972;2023-08-17T18:00:58;8.67;;;7.50;;
75400;SDS011;63974;47.538;18.972;2023-08-17T18:04:01;12.93;;;7.90;;
75400;SDS011;63974;47.538;18.972;2023-08-17T18:07:06;10.40;;;8.40;;
75400;SDS011;63974;47.538;18.972;2023-08-17T18:10:09;12.65;;;7.90;;
75400;SDS011;63974;47.538;18.972;2023-08-17T18:13:12;8.40;;;7.50;;
75400;SDS011;63974;47.538;18.972;2023-08-17T18:16:14;9.80;;;7.70;;
75400;SDS011;63974;47.538;18.972;2023-08-17T18:19:17;13.07;;;7.50;;